createdAt,value
2018-01-16T00:00:09.841Z,-0.20
2018-01-16T00:02:37.103Z,-0.20
2018-01-16T00:05:04.053Z,-0.20
2018-01-16T00:07:31.106Z,-0.20
2018-01-16T00:09:57.955Z,-0.20
2018-01-16T00:12:25.085Z,-0.20
2018-01-16T00:14:52.036Z,-0.20
2018-01-16T00:17:19.831Z,-0.20
2018-01-16T00:19:46.779Z,-0.20
2018-01-16T00:22:26.012Z,-0.20
2018-01-16T00:24:53.373Z,-0.10
2018-01-16T00:27:21.654Z,-0.20
2018-01-16T00:29:48.916Z,-0.10
2018-01-16T00:32:17.091Z,-0.10
2018-01-16T00:34:44.348Z,-0.10
2018-01-16T00:37:11.299Z,-0.10
2018-01-16T00:39:38.554Z,-0.10
2018-01-16T00:42:06.223Z,-0.10
2018-01-16T00:44:34.406Z,0.00
2018-01-16T00:47:02.256Z,0.00
2018-01-16T00:49:29.816Z,0.00
2018-01-16T00:51:58.221Z,0.00
2018-01-16T00:54:25.481Z,-0.10
2018-01-16T00:56:52.654Z,-0.10
2018-01-16T00:59:19.586Z,-0.10
2018-01-16T01:01:46.743Z,0.00
2018-01-16T01:04:13.804Z,0.00
2018-01-16T01:06:40.748Z,0.00
2018-01-16T01:09:07.801Z,0.00
2018-01-16T01:11:34.860Z,0.00
2018-01-16T01:14:01.705Z,0.00
2018-01-16T01:16:28.753Z,0.00
2018-01-16T01:18:55.602Z,0.00
2018-01-16T01:21:23.244Z,0.00
2018-01-16T01:23:51.349Z,0.00
2018-01-16T01:26:18.503Z,0.00
2018-01-16T01:28:45.248Z,0.00
2018-01-16T01:31:12.096Z,0.10
2018-01-16T01:33:38.945Z,0.20
2018-01-16T01:36:05.998Z,0.10
2018-01-16T01:38:32.744Z,0.10
2018-01-16T01:40:59.596Z,0.00
2018-01-16T01:43:26.441Z,0.00
2018-01-16T01:45:53.290Z,0.00
2018-01-16T01:48:20.343Z,0.10
2018-01-16T01:50:47.499Z,0.10
2018-01-16T01:53:14.963Z,0.10
2018-01-16T01:55:41.708Z,0.10
2018-01-16T01:58:08.853Z,0.10
2018-01-16T02:00:36.326Z,0.10
2018-01-16T02:03:03.379Z,0.10
2018-01-16T02:05:30.640Z,0.10
2018-01-16T02:07:58.919Z,0.10
2018-01-16T02:10:25.972Z,0.00
2018-01-16T02:12:53.027Z,0.00
2018-01-16T02:15:21.002Z,0.10
2018-01-16T02:17:48.257Z,0.10
2018-01-16T02:20:15.109Z,0.10
2018-01-16T02:22:42.772Z,0.10
2018-01-16T02:25:09.725Z,0.10
2018-01-16T02:27:36.576Z,0.10
2018-01-16T02:30:03.633Z,0.10
2018-01-16T02:32:30.350Z,0.00
2018-01-16T02:34:58.140Z,0.10
2018-01-16T02:37:25.095Z,0.00
2018-01-16T02:39:51.909Z,0.10
2018-01-16T02:42:18.699Z,0.10
2018-01-16T02:44:45.437Z,0.10
2018-01-16T02:47:12.179Z,0.10
2018-01-16T02:49:39.339Z,0.10
2018-01-16T02:52:06.394Z,0.10
2018-01-16T02:54:33.236Z,0.20
2018-01-16T02:57:01.216Z,0.10
2018-01-16T02:59:27.957Z,0.10
2018-01-16T03:01:54.806Z,0.10
2018-01-16T03:04:22.987Z,0.10
2018-01-16T03:06:49.835Z,0.10
2018-01-16T03:09:16.582Z,0.20
2018-01-16T03:11:43.940Z,0.20
2018-01-16T03:14:10.789Z,0.10
2018-01-16T03:16:38.049Z,0.10
2018-01-16T03:19:05.099Z,0.10
2018-01-16T03:21:31.743Z,0.10
2018-01-16T03:23:58.593Z,0.20
2018-01-16T03:26:25.853Z,0.10
2018-01-16T03:28:52.701Z,0.20
2018-01-16T03:31:19.449Z,0.20
2018-01-16T03:33:46.398Z,0.20
2018-01-16T03:36:14.065Z,0.20
2018-01-16T03:38:41.524Z,0.20
2018-01-16T03:41:08.452Z,0.20
2018-01-16T03:43:35.916Z,0.30
2018-01-16T03:46:02.582Z,0.20
2018-01-16T03:48:29.418Z,0.30
2018-01-16T03:50:56.386Z,0.30
2018-01-16T03:53:24.561Z,0.30
2018-01-16T03:55:51.617Z,0.30
2018-01-16T03:58:18.567Z,0.20
2018-01-16T04:00:45.518Z,0.30
2018-01-16T04:03:12.570Z,0.30
2018-01-16T04:05:39.724Z,0.30
2018-01-16T04:08:06.471Z,0.30
2018-01-16T04:10:33.218Z,0.30
2018-01-16T04:13:00.168Z,0.40
2018-01-16T04:15:26.919Z,0.40
2018-01-16T04:17:53.765Z,0.40
2018-01-16T04:20:21.021Z,0.40
2018-01-16T04:22:48.388Z,0.40
2018-01-16T04:25:15.435Z,0.50
2018-01-16T04:27:43.308Z,0.40
2018-01-16T04:30:10.566Z,0.40
2018-01-16T04:32:37.568Z,0.50
2018-01-16T04:35:04.673Z,0.50
2018-01-16T04:37:31.930Z,0.50
2018-01-16T04:39:58.965Z,0.50
2018-01-16T04:42:25.628Z,0.40
2018-01-16T04:44:52.864Z,0.50
2018-01-16T04:47:21.475Z,0.50
2018-01-16T04:49:48.731Z,0.50
2018-01-16T04:52:15.987Z,0.50
2018-01-16T04:54:43.146Z,0.50
2018-01-16T04:57:09.991Z,0.50
2018-01-16T04:59:37.252Z,0.50
2018-01-16T05:02:04.920Z,0.50
2018-01-16T05:04:31.658Z,0.60
2018-01-16T05:06:58.821Z,0.50
2018-01-16T05:09:26.067Z,0.60
2018-01-16T05:11:53.621Z,0.60
2018-01-16T05:14:21.312Z,0.60
2018-01-16T05:16:48.362Z,0.60
2018-01-16T05:19:15.217Z,0.60
2018-01-16T05:21:43.894Z,0.60
2018-01-16T05:24:11.363Z,0.60
2018-01-16T05:26:39.006Z,0.50
2018-01-16T05:29:06.496Z,0.60
2018-01-16T05:31:33.754Z,0.60
2018-01-16T05:34:00.970Z,0.50
2018-01-16T05:36:28.062Z,0.60
2018-01-16T05:38:58.969Z,0.60
2018-01-16T05:41:28.025Z,0.60
2018-01-16T05:43:58.311Z,0.60
2018-01-16T05:46:26.253Z,0.60
2018-01-16T05:48:55.311Z,0.60
2018-01-16T05:51:25.385Z,0.60
2018-01-16T05:53:54.680Z,0.60
2018-01-16T05:56:25.613Z,0.70
2018-01-16T05:58:56.054Z,0.60
2018-01-16T06:01:24.856Z,0.60
2018-01-16T06:03:52.462Z,0.60
2018-01-16T06:06:19.717Z,0.70
2018-01-16T06:08:46.667Z,0.70
2018-01-16T06:11:13.418Z,0.60
2018-01-16T06:13:40.366Z,0.70
2018-01-16T06:16:07.213Z,0.60
2018-01-16T06:18:34.062Z,0.60
2018-01-16T06:21:00.808Z,0.60
2018-01-16T06:23:27.969Z,0.60
2018-01-16T06:25:54.710Z,0.70
2018-01-16T06:28:21.970Z,0.60
2018-01-16T06:30:48.723Z,0.60
2018-01-16T06:33:15.460Z,0.60
2018-01-16T06:35:42.935Z,0.60
2018-01-16T06:38:09.673Z,0.60
2018-01-16T06:40:36.830Z,0.60
2018-01-16T06:43:03.780Z,0.50
2018-01-16T06:45:31.443Z,0.50
2018-01-16T06:47:58.190Z,0.50
2018-01-16T06:50:24.942Z,0.50
2018-01-16T06:52:51.787Z,0.50
2018-01-16T06:55:18.735Z,0.50
2018-01-16T06:57:45.481Z,0.50
2018-01-16T07:00:12.227Z,0.50
2018-01-16T07:02:39.475Z,0.50
2018-01-16T07:05:06.232Z,0.50
2018-01-16T07:07:33.285Z,0.50
2018-01-16T07:10:00.240Z,0.50
2018-01-16T07:12:26.897Z,0.50
2018-01-16T07:14:53.731Z,0.60
2018-01-16T07:17:21.101Z,0.60
2018-01-16T07:19:47.940Z,0.60
2018-01-16T07:22:14.683Z,0.60
2018-01-16T07:24:43.277Z,0.70
2018-01-16T07:27:11.341Z,0.70
2018-01-16T07:29:38.888Z,0.70
2018-01-16T07:32:06.174Z,0.70
2018-01-16T07:34:35.475Z,0.70
2018-01-16T07:37:02.528Z,0.70
2018-01-16T07:39:29.991Z,0.70
2018-01-16T07:41:56.843Z,0.70
2018-01-16T07:44:23.795Z,0.70
2018-01-16T07:46:51.459Z,0.70
2018-01-16T07:49:18.414Z,0.70
2018-01-16T07:51:46.592Z,0.70
2018-01-16T07:54:13.334Z,0.60
2018-01-16T07:56:40.387Z,0.60
2018-01-16T07:59:07.239Z,0.70
2018-01-16T08:01:34.088Z,0.70
2018-01-16T08:04:00.834Z,0.70
2018-01-16T08:06:28.600Z,0.70
2018-01-16T08:08:56.472Z,0.70
2018-01-16T08:11:24.237Z,0.70
2018-01-16T08:13:52.012Z,0.60
2018-01-16T08:16:18.836Z,0.70
2018-01-16T08:18:46.322Z,0.70
2018-01-16T08:21:14.299Z,0.70
2018-01-16T08:23:41.760Z,0.70
2018-01-16T08:26:08.812Z,0.70
2018-01-16T08:28:35.967Z,0.70
2018-01-16T08:31:03.845Z,0.70
2018-01-16T08:33:30.997Z,0.70
2018-01-16T08:35:58.460Z,0.70
2018-01-16T08:38:25.413Z,0.70
2018-01-16T08:40:52.466Z,0.70
2018-01-16T08:43:19.416Z,0.70
2018-01-16T08:45:46.162Z,0.70
2018-01-16T08:48:13.724Z,0.70
2018-01-16T08:50:40.899Z,0.70
2018-01-16T08:53:07.625Z,0.70
2018-01-16T08:55:34.580Z,0.70
2018-01-16T08:58:01.425Z,0.70
2018-01-16T09:00:28.352Z,0.70
2018-01-16T09:02:56.352Z,0.70
2018-01-16T09:05:23.918Z,0.70
2018-01-16T09:07:51.070Z,0.70
2018-01-16T09:10:17.817Z,0.60
2018-01-16T09:12:44.870Z,0.60
2018-01-16T09:15:11.925Z,0.60
2018-01-16T09:17:39.185Z,0.60
2018-01-16T09:20:06.646Z,0.50
2018-01-16T09:22:33.393Z,0.50
2018-01-16T09:25:00.141Z,0.60
2018-01-16T09:27:27.394Z,0.50
2018-01-16T09:29:54.657Z,0.60
2018-01-16T09:32:21.606Z,0.60
2018-01-16T09:34:48.762Z,0.60
2018-01-16T09:37:16.733Z,0.50
2018-01-16T09:39:43.995Z,0.50
2018-01-16T09:42:11.147Z,0.50
2018-01-16T09:44:37.892Z,0.50
2018-01-16T09:47:04.850Z,0.50
2018-01-16T09:49:32.715Z,0.50
2018-01-16T09:51:59.772Z,0.50
2018-01-16T09:54:26.823Z,0.40
2018-01-16T09:56:53.874Z,0.50
2018-01-16T09:59:21.443Z,0.50
2018-01-16T10:01:48.291Z,0.50
2018-01-16T10:04:15.445Z,0.40
2018-01-16T10:06:42.601Z,0.40
2018-01-16T10:09:09.672Z,0.40
2018-01-16T10:11:37.017Z,0.40
2018-01-16T10:14:03.862Z,0.40
2018-01-16T10:16:31.124Z,0.40
2018-01-16T10:18:59.412Z,0.30
2018-01-16T10:21:26.147Z,0.40
2018-01-16T10:23:52.998Z,0.30
2018-01-16T10:26:20.366Z,0.30
2018-01-16T10:28:48.024Z,0.40
2018-01-16T10:31:15.080Z,0.40
2018-01-16T10:33:42.132Z,0.40
2018-01-16T10:36:09.254Z,0.40
2018-01-16T10:38:38.067Z,0.40
2018-01-16T10:41:05.545Z,0.40
2018-01-16T10:43:32.798Z,0.40
2018-01-16T10:46:00.262Z,0.40
2018-01-16T10:48:27.314Z,0.40
2018-01-16T10:50:54.344Z,0.40
2018-01-16T10:53:21.936Z,0.40
2018-01-16T10:55:49.191Z,0.30
2018-01-16T10:58:16.554Z,0.40
2018-01-16T11:00:43.504Z,0.40
2018-01-16T11:03:10.662Z,0.40
2018-01-16T11:05:37.404Z,0.40
2018-01-16T11:08:04.667Z,0.40
2018-01-16T11:10:32.431Z,0.50
2018-01-16T11:12:59.999Z,0.50
2018-01-16T11:15:27.563Z,0.50
2018-01-16T11:17:55.512Z,0.70
2018-01-16T11:20:23.205Z,0.50
2018-01-16T11:22:50.564Z,0.40
2018-01-16T11:25:17.616Z,0.50
2018-01-16T11:27:44.369Z,0.50
2018-01-16T11:30:12.033Z,0.50
2018-01-16T11:32:39.801Z,0.40
2018-01-16T11:35:06.854Z,0.40
2018-01-16T11:37:34.316Z,0.30
2018-01-16T11:40:01.171Z,0.30
2018-01-16T11:42:27.910Z,0.30
2018-01-16T11:44:54.963Z,0.30
2018-01-16T11:47:21.913Z,0.30
2018-01-16T11:49:48.733Z,0.20
2018-01-16T11:52:17.225Z,0.20
2018-01-16T11:54:45.733Z,0.20
2018-01-16T11:57:12.584Z,0.10
2018-01-16T11:59:39.844Z,0.10
2018-01-16T12:02:07.100Z,0.20
2018-01-16T12:04:34.116Z,0.10
2018-01-16T12:07:02.232Z,0.00
2018-01-16T12:09:29.489Z,0.00
2018-01-16T12:11:58.385Z,0.00
2018-01-16T12:14:25.127Z,0.00
2018-01-16T12:16:52.390Z,0.00
2018-01-16T12:19:20.462Z,-0.10
2018-01-16T12:21:48.745Z,-0.20
2018-01-16T12:24:16.001Z,-0.20
2018-01-16T12:26:42.751Z,-0.20
2018-01-16T12:29:10.211Z,-0.10
2018-01-16T12:31:37.877Z,-0.20
2018-01-16T12:34:05.353Z,-0.20
2018-01-16T12:36:32.703Z,-0.30
2018-01-16T12:38:59.756Z,-0.30
2018-01-16T12:41:26.605Z,-0.30
2018-01-16T12:43:53.658Z,-0.30
2018-01-16T12:46:21.428Z,-0.40
2018-01-16T12:48:48.478Z,-0.40
2018-01-16T12:51:15.313Z,-0.40
2018-01-16T12:53:42.998Z,-0.40
2018-01-16T12:56:11.070Z,-0.50
2018-01-16T12:58:37.816Z,-0.50
2018-01-16T13:01:05.484Z,-0.50
2018-01-16T13:03:33.153Z,-0.50
2018-01-16T13:06:00.310Z,-0.50
2018-01-16T13:08:27.362Z,-0.50
2018-01-16T13:10:54.184Z,-0.50
2018-01-16T13:13:21.673Z,-0.50
2018-01-16T13:15:48.519Z,-0.50
2018-01-16T13:18:15.677Z,-0.60
2018-01-16T13:20:42.830Z,-0.70
2018-01-16T13:23:09.860Z,-0.70
2018-01-16T13:25:37.339Z,-0.80
2018-01-16T13:28:04.401Z,-0.80
2018-01-16T13:30:31.354Z,-0.90
2018-01-16T13:32:58.509Z,-0.80
2018-01-16T13:35:25.344Z,-0.80
2018-01-16T13:37:54.277Z,-0.80
2018-01-16T13:40:21.510Z,-0.90
2018-01-16T13:42:49.664Z,-0.80
2018-01-16T13:45:17.562Z,-0.90
2018-01-16T13:47:45.123Z,-1.00
2018-01-16T13:50:14.427Z,-1.00
2018-01-16T13:52:41.278Z,-1.00
2018-01-16T13:55:08.029Z,-1.00
2018-01-16T13:57:35.484Z,-0.90
2018-01-16T14:00:02.644Z,-1.00
2018-01-16T14:02:30.308Z,-1.00
2018-01-16T14:04:57.368Z,-0.90
2018-01-16T14:07:24.212Z,-1.00
2018-01-16T14:09:51.262Z,-1.00
2018-01-16T14:12:18.616Z,-1.00
2018-01-16T14:14:46.290Z,-0.90
2018-01-16T14:17:13.858Z,-1.00
2018-01-16T14:19:40.806Z,-1.00
2018-01-16T14:22:08.784Z,-1.00
2018-01-16T14:24:35.527Z,-1.00
2018-01-16T14:27:02.480Z,-1.00
2018-01-16T14:29:29.635Z,-1.00
2018-01-16T14:31:56.586Z,-1.00
2018-01-16T14:34:24.253Z,-1.00
2018-01-16T14:36:51.088Z,-1.00
2018-01-16T14:39:17.849Z,-1.00
2018-01-16T14:41:44.798Z,-1.00
2018-01-16T14:44:15.448Z,-1.00
2018-01-16T14:46:43.996Z,-0.90
2018-01-16T14:49:12.915Z,-0.90
2018-01-16T14:51:39.766Z,-0.90
2018-01-16T14:54:07.004Z,-0.90
2018-01-16T14:56:35.202Z,-0.90
2018-01-16T14:59:02.049Z,-0.90
2018-01-16T15:01:28.901Z,-0.90
2018-01-16T15:03:56.461Z,-0.90
2018-01-16T15:06:23.724Z,-0.90
2018-01-16T15:08:50.674Z,-0.90
2018-01-16T15:11:17.622Z,-0.90
2018-01-16T15:13:44.577Z,-0.80
2018-01-16T15:16:11.626Z,-0.80
2018-01-16T15:18:38.479Z,-0.80
2018-01-16T15:21:06.147Z,-0.80
2018-01-16T15:23:33.402Z,-0.80
2018-01-16T15:26:00.354Z,-0.80
2018-01-16T15:28:27.915Z,-0.80
2018-01-16T15:30:56.302Z,-0.80
2018-01-16T15:33:23.151Z,-0.80
2018-01-16T15:35:50.409Z,-0.80
2018-01-16T15:38:17.258Z,-0.80
2018-01-16T15:40:44.613Z,-0.70
2018-01-16T15:43:11.360Z,-0.70
2018-01-16T15:45:38.220Z,-0.70
2018-01-16T15:48:05.368Z,-0.70
2018-01-16T15:50:32.627Z,-0.70
2018-01-16T15:52:59.781Z,-0.70
2018-01-16T15:55:26.929Z,-0.70
2018-01-16T15:57:54.092Z,-0.70
2018-01-16T16:00:20.920Z,-0.70
2018-01-16T16:02:47.983Z,-0.70
2018-01-16T16:05:15.559Z,-0.60
2018-01-16T16:07:42.507Z,-0.70
2018-01-16T16:10:09.342Z,-0.60
2018-01-16T16:12:36.923Z,-0.70
2018-01-16T16:15:04.178Z,-0.70
2018-01-16T16:17:30.927Z,-0.70
2018-01-16T16:19:57.980Z,-0.70
2018-01-16T16:22:24.830Z,-0.70
2018-01-16T16:24:52.698Z,-0.60
2018-01-16T16:27:19.546Z,-0.60
2018-01-16T16:29:46.352Z,-0.60
2018-01-16T16:32:14.452Z,-0.60
2018-01-16T16:34:41.425Z,-0.60
2018-01-16T16:37:08.785Z,-0.60
2018-01-16T16:39:36.143Z,-0.60
2018-01-16T16:42:05.067Z,-0.60
2018-01-16T16:44:32.713Z,-0.60
2018-01-16T16:46:59.603Z,-0.60
2018-01-16T16:49:26.494Z,-0.50
2018-01-16T16:51:53.228Z,-0.50
2018-01-16T16:54:20.511Z,-0.50
2018-01-16T16:56:48.180Z,-0.50
2018-01-16T16:59:15.127Z,-0.50
2018-01-16T17:01:42.899Z,-0.50
2018-01-16T17:04:09.746Z,-0.50
2018-01-16T17:06:38.871Z,-0.50
2018-01-16T17:09:05.801Z,-0.40
2018-01-16T17:11:34.180Z,-0.40
2018-01-16T17:14:02.364Z,-0.40
2018-01-16T17:16:29.207Z,-0.40
2018-01-16T17:18:56.362Z,-0.40
2018-01-16T17:21:23.109Z,-0.40
2018-01-16T17:23:50.065Z,-0.40
2018-01-16T17:26:17.117Z,-0.40
2018-01-16T17:28:44.067Z,-0.30
2018-01-16T17:31:10.812Z,-0.30
2018-01-16T17:33:38.172Z,-0.30
2018-01-16T17:36:05.839Z,-0.30
2018-01-16T17:38:34.017Z,-0.30
2018-01-16T17:41:01.278Z,-0.30
2018-01-16T17:43:28.225Z,-0.20
2018-01-16T17:45:55.588Z,-0.30
2018-01-16T17:48:22.847Z,-0.30
2018-01-16T17:50:49.692Z,-0.30
2018-01-16T17:53:17.645Z,-0.30
2018-01-16T17:55:45.893Z,-0.30
2018-01-16T17:58:12.852Z,-0.30
2018-01-16T18:00:39.751Z,-0.40
2018-01-16T18:03:06.494Z,-0.40
2018-01-16T18:05:33.346Z,-0.40
2018-01-16T18:08:00.091Z,-0.40
2018-01-16T18:10:27.759Z,-0.40
2018-01-16T18:12:54.989Z,-0.40
2018-01-16T18:15:21.727Z,-0.30
2018-01-16T18:17:48.918Z,-0.30
2018-01-16T18:20:16.585Z,-0.30
2018-01-16T18:22:43.230Z,-0.40
2018-01-16T18:25:10.112Z,-0.40
2018-01-16T18:27:37.539Z,-0.30
2018-01-16T18:30:04.284Z,-0.40
2018-01-16T18:32:31.057Z,-0.40
2018-01-16T18:34:58.288Z,-0.30
2018-01-16T18:37:25.995Z,-0.40
2018-01-16T18:39:53.100Z,-0.40
2018-01-16T18:42:21.187Z,-0.50
2018-01-16T18:44:50.392Z,-0.50
2018-01-16T18:47:18.476Z,-0.50
2018-01-16T18:49:45.317Z,-0.50
2018-01-16T18:52:12.573Z,-0.50
2018-01-16T18:54:39.326Z,-0.50
2018-01-16T18:57:06.065Z,-0.60
2018-01-16T18:59:32.814Z,-0.50
2018-01-16T19:01:59.766Z,-0.50
2018-01-16T19:04:27.431Z,-0.50
2018-01-16T19:06:54.191Z,-0.60
2018-01-16T19:09:20.947Z,-0.60
2018-01-16T19:11:48.079Z,-0.60
2018-01-16T19:14:14.930Z,-0.60
2018-01-16T19:16:43.415Z,-0.60
2018-01-16T19:19:10.571Z,-0.60
2018-01-16T19:21:37.730Z,-0.60
2018-01-16T19:24:04.469Z,-0.60
2018-01-16T19:26:31.396Z,-0.60
2018-01-16T19:28:58.373Z,-0.60
2018-01-16T19:31:27.901Z,-0.60
2018-01-16T19:33:57.256Z,-0.60
2018-01-16T19:36:25.263Z,-0.60
2018-01-16T19:38:52.113Z,-0.50
2018-01-16T19:41:18.935Z,-0.60
2018-01-16T19:43:46.628Z,-0.60
2018-01-16T19:46:13.452Z,-0.60
2018-01-16T19:48:41.246Z,-0.60
2018-01-16T19:51:08.092Z,-0.60
2018-01-16T19:53:34.943Z,-0.60
2018-01-16T19:56:02.713Z,-0.60
2018-01-16T19:58:29.868Z,-0.60
2018-01-16T20:00:57.227Z,-0.60
2018-01-16T20:03:23.975Z,-0.60
2018-01-16T20:05:53.108Z,-0.70
2018-01-16T20:08:21.614Z,-0.70
2018-01-16T20:10:48.716Z,-0.70
2018-01-16T20:13:16.385Z,-0.70
2018-01-16T20:15:43.130Z,-0.80
2018-01-16T20:18:10.043Z,-0.80
2018-01-16T20:20:38.676Z,-0.80
2018-01-16T20:23:05.724Z,-0.80
2018-01-16T20:25:32.571Z,-0.80
2018-01-16T20:28:00.237Z,-0.90
2018-01-16T20:30:27.595Z,-0.80
2018-01-16T20:32:54.241Z,-0.90
2018-01-16T20:35:20.987Z,-0.90
2018-01-16T20:37:47.815Z,-0.90
2018-01-16T20:40:14.993Z,-0.90
2018-01-16T20:42:45.391Z,-0.90
2018-01-16T20:45:12.374Z,-0.90
2018-01-16T20:47:39.325Z,-1.00
2018-01-16T20:50:06.278Z,-1.00
2018-01-16T20:52:33.125Z,-1.00
2018-01-16T20:55:00.740Z,-1.10
2018-01-16T20:57:27.538Z,-1.10
2018-01-16T20:59:54.388Z,-1.10
2018-01-16T21:05:24.412Z,-1.20
2018-01-16T21:07:51.155Z,-1.20
2018-01-16T21:10:17.919Z,-1.20
2018-01-16T21:12:45.568Z,-1.30
2018-01-16T21:15:12.315Z,-1.30
2018-01-16T21:17:39.572Z,-1.30
2018-01-16T21:20:06.832Z,-1.20
2018-01-16T21:22:33.986Z,-1.30
2018-01-16T21:25:00.628Z,-1.30
2018-01-16T21:27:27.376Z,-1.30
2018-01-16T21:29:54.429Z,-1.30
2018-01-16T21:32:21.385Z,-1.30
2018-01-16T21:34:48.130Z,-1.30
2018-01-16T21:37:15.260Z,-1.40
2018-01-16T21:39:42.032Z,-1.30
2018-01-16T21:42:08.781Z,-1.30
2018-01-16T21:44:35.734Z,-1.40
2018-01-16T21:47:03.297Z,-1.40
2018-01-16T21:49:30.241Z,-1.40
2018-01-16T21:51:56.977Z,-1.40
2018-01-16T21:54:24.567Z,-1.40
2018-01-16T21:56:51.400Z,-1.40
2018-01-16T21:59:18.076Z,-1.40
2018-01-16T22:01:44.794Z,-1.30
2018-01-16T22:04:12.036Z,-1.40
2018-01-16T22:06:39.103Z,-1.40
2018-01-16T22:09:05.955Z,-1.30
2018-01-16T22:11:33.005Z,-1.40
2018-01-16T22:14:00.374Z,-1.40
2018-01-16T22:16:27.523Z,-1.30
2018-01-16T22:18:54.475Z,-1.30
2018-01-16T22:21:21.834Z,-1.40
2018-01-16T22:23:48.588Z,-1.40
2018-01-16T22:26:15.835Z,-1.30
2018-01-16T22:28:42.530Z,-1.30
2018-01-16T22:31:09.229Z,-1.40
2018-01-16T22:33:38.821Z,-1.40
2018-01-16T22:36:07.408Z,-1.40
2018-01-16T22:38:34.575Z,-1.40
2018-01-16T22:41:01.249Z,-1.40
2018-01-16T22:43:32.657Z,-1.40
2018-01-16T22:46:04.704Z,-1.40
2018-01-16T22:48:40.202Z,-1.50
2018-01-16T22:51:07.556Z,-1.40
2018-01-16T22:53:35.127Z,-1.40
2018-01-16T22:56:02.680Z,-1.40
2018-01-16T22:58:30.086Z,-1.40
2018-01-16T23:00:56.935Z,-1.50
2018-01-16T23:03:23.946Z,-1.50
2018-01-16T23:05:51.104Z,-1.50
2018-01-16T23:08:18.049Z,-1.40
2018-01-16T23:10:44.829Z,-1.40
2018-01-16T23:13:11.546Z,-1.40
2018-01-16T23:15:39.562Z,-1.40
2018-01-16T23:18:06.472Z,-1.40
2018-01-16T23:20:33.218Z,-1.50
2018-01-16T23:23:00.066Z,-1.50
2018-01-16T23:25:26.914Z,-1.50
2018-01-16T23:27:53.651Z,-1.40
2018-01-16T23:30:21.119Z,-1.50
2018-01-16T23:32:47.866Z,-1.50
2018-01-16T23:35:14.823Z,-1.50
2018-01-16T23:37:42.794Z,-1.50
2018-01-16T23:40:09.538Z,-1.50
2018-01-16T23:42:36.590Z,-1.50
2018-01-16T23:45:03.546Z,-1.50
2018-01-16T23:47:31.015Z,-1.50
2018-01-16T23:49:57.797Z,-1.50
2018-01-16T23:52:25.110Z,-1.50
2018-01-16T23:54:51.860Z,-1.60
2018-01-16T23:57:18.606Z,-1.60
2018-01-16T23:59:45.660Z,-1.70
